Time;durP1;ratioP1;P1;durP2;ratioP2;P2;SDS_P1;SDS_P2;PMS_P1;PMS_P2;Temp;Humidity;BMP_temperature;BMP_pressure;BME280_temperature;BME280_humidity;BME280_pressure;Samples;Min_cycle;Max_cycle;Signal;HPM_P1;HPM_P2
2021/05/17 00:00:11;;;;;;;1.80;0.77;;;;;;;10.96;nan;99299.13;5085218;28;20082;-71
2021/05/17 00:02:37;;;;;;;3.17;0.70;;;;;;;10.93;nan;99294.22;5066212;28;20032;-73
2021/05/17 00:05:04;;;;;;;2.30;1.15;;;;;;;10.84;nan;99289.03;5082617;28;20040;-73
2021/05/17 00:07:30;;;;;;;2.05;0.70;;;;;;;10.79;nan;99295.88;5069372;28;20036;-73
2021/05/17 00:09:55;;;;;;;0.63;0.52;;;;;;;10.80;nan;99297.53;5085021;28;20084;-72
2021/05/17 00:12:21;;;;;;;1.70;0.90;;;;;;;10.77;nan;99296.06;5069016;28;20083;-72
2021/05/17 00:14:47;;;;;;;1.77;0.73;;;;;;;10.69;nan;99298.78;5086688;28;20037;-72
2021/05/17 00:17:13;;;;;;;2.25;0.63;;;;;;;10.57;nan;99300.25;5081128;28;20044;-72
2021/05/17 00:19:39;;;;;;;2.67;0.60;;;;;;;10.65;nan;99312.56;5078795;28;20088;-72
2021/05/17 00:22:05;;;;;;;1.17;0.60;;;;;;;10.59;nan;99308.81;5083026;28;20064;-72
2021/05/17 00:24:31;;;;;;;2.22;0.70;;;;;;;10.57;nan;99310.81;5085958;28;20524;-72
2021/05/17 00:26:57;;;;;;;1.75;0.90;;;;;;;10.58;nan;99309.81;5090044;28;20062;-72
2021/05/17 00:29:22;;;;;;;2.97;0.70;;;;;;;10.48;nan;99298.69;5085404;28;20032;-72
2021/05/17 00:31:47;;;;;;;1.27;0.65;;;;;;;10.48;nan;99304.78;5086737;28;20044;-72
2021/05/17 00:34:13;;;;;;;0.90;0.70;;;;;;;10.50;nan;99305.44;5069144;28;20115;-73
2021/05/17 00:36:38;;;;;;;2.03;1.00;;;;;;;10.43;nan;99307.16;5064605;28;20181;-72
2021/05/17 00:39:09;;;;;;;1.75;0.98;;;;;;;10.43;nan;99306.34;5065780;28;20029;-73
2021/05/17 00:41:36;;;;;;;2.00;1.00;;;;;;;10.32;nan;99313.72;5068495;28;20560;-72
2021/05/17 00:44:01;;;;;;;2.00;0.80;;;;;;;10.26;nan;99301.19;5053492;28;20032;-73
2021/05/17 00:46:29;;;;;;;2.50;0.90;;;;;;;10.20;nan;99308.03;5063907;28;20033;-72
2021/05/17 00:48:55;;;;;;;1.08;0.70;;;;;;;10.16;nan;99300.63;5069880;28;20366;-73
2021/05/17 00:51:20;;;;;;;0.75;0.52;;;;;;;10.16;nan;99301.44;5070096;28;20039;-72
2021/05/17 00:53:46;;;;;;;1.02;0.70;;;;;;;10.16;nan;99305.91;5077666;28;20116;-72
2021/05/17 00:56:12;;;;;;;0.80;0.68;;;;;;;10.17;nan;99302.25;5070253;28;20036;-73
2021/05/17 00:58:38;;;;;;;1.05;0.60;;;;;;;10.15;nan;99304.25;5074161;28;20078;-72
2021/05/17 01:01:05;;;;;;;1.02;0.50;;;;;;;10.17;nan;99316.28;5080803;28;20032;-72
2021/05/17 01:03:31;;;;;;;1.77;0.63;;;;;;;10.18;nan;99315.31;5083926;28;20043;-73
2021/05/17 01:06:01;;;;;;;1.45;0.70;;;;;;;10.20;nan;99312.47;5070026;28;20684;-72
2021/05/17 01:08:47;;;;;;;0.57;0.57;;;;;;;10.23;nan;99309.47;5085834;28;20052;-72
2021/05/17 01:11:17;;;;;;;2.03;0.75;;;;;;;10.25;nan;99299.56;5080388;28;20032;-72
2021/05/17 01:13:44;;;;;;;1.77;0.77;;;;;;;10.31;nan;99309.44;5086912;28;20253;-72
2021/05/17 01:16:10;;;;;;;1.30;0.70;;;;;;;10.35;nan;99305.44;5088445;28;20032;-72
2021/05/17 01:18:39;;;;;;;0.70;0.60;;;;;;;10.36;nan;99314.97;5060598;28;20120;-72
2021/05/17 01:21:05;;;;;;;2.15;0.90;;;;;;;10.41;nan;99309.16;5077455;28;20039;-72
2021/05/17 01:23:42;;;;;;;1.48;0.85;;;;;;;10.46;nan;99312.06;5069015;28;20051;-72
2021/05/17 01:26:08;;;;;;;2.25;1.10;;;;;;;10.48;nan;99312.72;5071452;28;20428;-73
2021/05/17 01:28:35;;;;;;;1.85;0.80;;;;;;;10.47;nan;99305.00;5087565;28;20111;-72
2021/05/17 01:31:03;;;;;;;2.05;0.80;;;;;;;10.53;nan;99307.72;5081766;28;20028;-72
2021/05/17 01:33:33;;;;;;;2.42;0.93;;;;;;;10.51;nan;99320.31;5086246;28;20032;-72
2021/05/17 01:36:00;;;;;;;1.88;0.80;;;;;;;10.49;nan;99314.38;5085428;28;20036;-71
2021/05/17 01:38:26;;;;;;;2.47;1.00;;;;;;;10.54;nan;99309.38;5068184;28;20044;-72
2021/05/17 01:40:53;;;;;;;2.58;0.93;;;;;;;10.56;nan;99312.66;5087718;28;20399;-73
2021/05/17 01:43:21;;;;;;;3.67;1.00;;;;;;;10.54;nan;99305.91;5069567;28;20036;-72
2021/05/17 01:45:47;;;;;;;3.40;0.90;;;;;;;10.47;nan;99305.81;5086318;28;20508;-72
2021/05/17 01:48:13;;;;;;;2.75;0.90;;;;;;;10.48;nan;99301.34;5084504;28;20406;-73
2021/05/17 01:50:39;;;;;;;3.35;1.00;;;;;;;10.52;nan;99311.38;5069622;28;20056;-73
2021/05/17 01:53:05;;;;;;;1.35;0.75;;;;;;;10.49;nan;99324.13;5084143;28;20474;-72
2021/05/17 01:55:31;;;;;;;2.80;1.13;;;;;;;10.50;nan;99313.38;5088766;28;20040;-72
2021/05/17 01:58:07;;;;;;;2.75;0.90;;;;;;;10.51;nan;99317.66;5086348;28;20059;-72
2021/05/17 02:00:33;;;;;;;1.88;0.90;;;;;;;10.50;nan;99316.00;5084355;28;20449;-72
2021/05/17 02:02:59;;;;;;;1.58;1.00;;;;;;;10.55;nan;99321.56;5079831;28;20055;-72
2021/05/17 02:05:26;;;;;;;2.60;1.17;;;;;;;10.51;nan;99319.47;5076645;28;20039;-72
2021/05/17 02:07:53;;;;;;;1.60;0.70;;;;;;;10.53;nan;99317.47;5069000;28;20028;-72
2021/05/17 02:10:19;;;;;;;2.28;0.85;;;;;;;10.53;nan;99320.94;5067735;28;20036;-73
2021/05/17 02:12:44;;;;;;;3.00;1.00;;;;;;;10.58;nan;99326.53;5068186;28;20552;-72
2021/05/17 02:15:12;;;;;;;3.22;1.20;;;;;;;10.61;nan;99320.03;5064931;28;20033;-72
2021/05/17 02:17:37;;;;;;;2.75;0.90;;;;;;;10.59;nan;99320.22;5058359;28;20036;-72
2021/05/17 02:20:04;;;;;;;3.22;1.08;;;;;;;10.64;nan;99317.03;5074601;28;20032;-72
2021/05/17 02:22:29;;;;;;;2.63;1.00;;;;;;;10.60;nan;99315.75;5074856;28;20046;-72
2021/05/17 02:24:54;;;;;;;2.80;0.90;;;;;;;10.61;nan;99315.56;5048622;28;20028;-72
2021/05/17 02:27:20;;;;;;;4.20;1.13;;;;;;;10.59;nan;99317.56;5064737;28;20367;-72
2021/05/17 02:29:46;;;;;;;3.17;1.15;;;;;;;10.62;nan;99316.38;5065486;28;20307;-72
2021/05/17 02:32:22;;;;;;;2.88;1.30;;;;;;;10.61;nan;99320.03;5067268;28;20045;-72
2021/05/17 02:34:48;;;;;;;2.38;1.08;;;;;;;10.65;nan;99321.31;5062846;28;20388;-72
2021/05/17 02:37:14;;;;;;;3.80;1.20;;;;;;;10.68;nan;99318.31;5069002;28;20036;-72
2021/05/17 02:39:40;;;;;;;1.73;0.80;;;;;;;10.59;nan;99317.56;5059881;28;20117;-72
2021/05/17 02:42:12;;;;;;;4.22;0.95;;;;;;;10.65;nan;99323.13;5079870;28;20267;-72
2021/05/17 02:44:37;;;;;;;3.35;1.10;;;;;;;10.66;nan;99322.97;5046177;28;20528;-71
2021/05/17 02:47:03;;;;;;;1.80;0.90;;;;;;;10.69;nan;99329.69;5061477;28;20071;-71
2021/05/17 02:49:33;;;;;;;4.10;1.00;;;;;;;10.68;nan;99328.88;5085613;28;20111;-71
2021/05/17 02:51:59;;;;;;;2.53;0.82;;;;;;;10.69;nan;99329.69;5069783;28;20025;-72
2021/05/17 02:54:32;;;;;;;3.33;0.98;;;;;;;10.74;nan;99327.31;5068655;28;20044;-72
2021/05/17 02:56:58;;;;;;;2.45;1.00;;;;;;;10.74;nan;99332.63;5070883;28;20074;-72
2021/05/17 03:00:00;;;;;;;4.50;1.33;;;;;;;10.74;nan;99333.44;5070694;28;20044;-71
2021/05/17 03:02:29;;;;;;;2.28;0.70;;;;;;;10.76;nan;99338.56;5061870;28;20418;-71
2021/05/17 03:04:57;;;;;;;3.60;0.90;;;;;;;10.78;nan;99341.84;5057934;28;20036;-72
2021/05/17 03:07:26;;;;;;;1.38;0.70;;;;;;;10.81;nan;99344.91;5074751;28;20135;-72
2021/05/17 03:09:54;;;;;;;1.35;0.73;;;;;;;10.78;nan;99341.84;5088279;28;20052;-71
2021/05/17 03:12:22;;;;;;;2.00;0.90;;;;;;;10.82;nan;99348.38;5086494;28;20127;-71
2021/05/17 03:14:50;;;;;;;5.15;1.10;;;;;;;10.80;nan;99348.59;5071921;28;20116;-71
2021/05/17 03:17:17;;;;;;;1.80;0.93;;;;;;;10.79;nan;99349.56;5059796;28;20041;-71
2021/05/17 03:19:44;;;;;;;1.98;0.80;;;;;;;10.82;nan;99351.03;5071020;28;20105;-72
2021/05/17 03:22:09;;;;;;;5.10;1.02;;;;;;;10.76;nan;99351.78;5070233;28;20037;-72
2021/05/17 03:24:38;;;;;;;3.70;0.90;;;;;;;10.78;nan;99353.22;5070794;28;20127;-71
2021/05/17 03:27:24;;;;;;;3.05;0.90;;;;;;;10.78;nan;99353.22;5070614;28;20112;-71
2021/05/17 03:29:50;;;;;;;2.33;0.70;;;;;;;10.77;nan;99354.25;5064326;28;20028;-71
2021/05/17 03:32:16;;;;;;;1.27;0.70;;;;;;;10.77;nan;99356.03;5069892;28;20033;-72
2021/05/17 03:34:42;;;;;;;1.88;0.55;;;;;;;10.78;nan;99352.41;5056820;28;20044;-71
2021/05/17 03:37:08;;;;;;;2.00;0.70;;;;;;;10.77;nan;99353.41;5046020;28;20032;-72
2021/05/17 03:39:33;;;;;;;1.33;0.70;;;;;;;10.76;nan;99355.22;5069950;28;20036;-71
2021/05/17 03:41:59;;;;;;;3.10;0.80;;;;;;;10.74;nan;99357.22;5070382;28;20035;-71
2021/05/17 03:44:24;;;;;;;1.85;0.73;;;;;;;10.74;nan;99354.59;5052456;28;20032;-71
2021/05/17 03:46:49;;;;;;;1.55;0.70;;;;;;;10.80;nan;99361.81;5070803;28;20427;-71
2021/05/17 03:49:15;;;;;;;3.08;0.88;;;;;;;10.79;nan;99368.06;5071875;28;20440;-71
2021/05/17 03:51:40;;;;;;;3.78;0.77;;;;;;;10.81;nan;99366.06;5070783;28;20025;-71
2021/05/17 03:54:05;;;;;;;2.53;0.77;;;;;;;10.81;nan;99366.06;5069536;28;20051;-72
2021/05/17 03:56:31;;;;;;;1.42;0.70;;;;;;;10.80;nan;99366.28;5070186;28;20389;-71
2021/05/17 03:58:56;;;;;;;2.72;0.82;;;;;;;10.80;nan;99374.22;5069581;28;20091;-71
2021/05/17 04:01:22;;;;;;;3.33;0.90;;;;;;;10.82;nan;99373.03;5069378;28;20488;-71
2021/05/17 04:03:47;;;;;;;3.00;0.80;;;;;;;10.82;nan;99370.38;5070164;28;20036;-71
2021/05/17 04:06:20;;;;;;;2.97;0.90;;;;;;;10.78;nan;99369.09;5050646;28;20559;-71
2021/05/17 04:14:13;;;;;;;4.35;1.35;;;;;;;10.77;nan;99383.34;5067436;28;20093;-71
2021/05/17 04:16:38;;;;;;;3.15;0.90;;;;;;;10.78;nan;99387.59;5070225;28;20452;-71
2021/05/17 04:19:04;;;;;;;3.85;0.90;;;;;;;10.81;nan;99389.88;5071085;28;20311;-72
2021/05/17 04:21:29;;;;;;;1.98;0.80;;;;;;;10.80;nan;99388.25;5070272;28;20041;-72
2021/05/17 04:23:54;;;;;;;2.63;0.90;;;;;;;10.78;nan;99400.00;5053120;28;20031;-72
2021/05/17 04:26:20;;;;;;;1.77;0.70;;;;;;;10.81;nan;99400.44;5052029;28;20044;-72
2021/05/17 04:28:45;;;;;;;3.95;0.80;;;;;;;10.80;nan;99398.81;5070026;28;20135;-71
2021/05/17 04:31:10;;;;;;;3.67;0.80;;;;;;;10.82;nan;99399.47;5070703;28;20082;-71
2021/05/17 04:33:36;;;;;;;2.35;0.68;;;;;;;10.74;nan;99399.53;5060547;28;20028;-71
2021/05/17 04:36:01;;;;;;;1.92;0.70;;;;;;;10.72;nan;99392.78;5054936;28;20108;-72
2021/05/17 04:38:26;;;;;;;5.13;0.90;;;;;;;10.77;nan;99398.34;5070346;28;20374;-72
2021/05/17 04:40:52;;;;;;;1.50;0.80;;;;;;;10.66;nan;99407.56;5069313;28;20039;-72
2021/05/17 04:43:17;;;;;;;1.25;0.68;;;;;;;10.49;nan;99411.34;5051545;28;20037;-72
2021/05/17 04:45:42;;;;;;;0.63;0.50;;;;;;;10.40;nan;99413.25;5069673;28;20306;-72
2021/05/17 04:48:08;;;;;;;2.10;0.80;;;;;;;10.33;nan;99407.84;5068624;28;20042;-73
2021/05/17 04:50:33;;;;;;;1.75;0.65;;;;;;;10.34;nan;99420.03;5068909;28;20033;-72
2021/05/17 04:52:59;;;;;;;2.83;1.17;;;;;;;10.32;nan;99419.41;5069295;28;20116;-72
2021/05/17 04:55:25;;;;;;;3.05;0.90;;;;;;;10.28;nan;99419.91;5069234;28;20032;-72
2021/05/17 04:57:50;;;;;;;1.75;0.80;;;;;;;10.29;nan;99429.50;5069097;28;20543;-72
2021/05/17 05:00:16;;;;;;;0.95;0.60;;;;;;;10.23;nan;99423.09;5067860;28;20094;-72
2021/05/17 05:02:41;;;;;;;1.30;0.70;;;;;;;10.21;nan;99428.53;5069300;28;20592;-72
2021/05/17 05:05:08;;;;;;;3.17;0.77;;;;;;;10.26;nan;99435.94;5069314;28;20090;-72
2021/05/17 05:07:33;;;;;;;3.67;0.85;;;;;;;10.23;nan;99432.84;5069278;28;20060;-72
2021/05/17 05:09:58;;;;;;;1.30;0.68;;;;;;;10.23;nan;99428.38;5069128;28;20056;-72
2021/05/17 05:12:24;;;;;;;1.35;0.70;;;;;;;10.25;nan;99436.09;5068615;28;20059;-72
2021/05/17 05:14:49;;;;;;;1.90;0.70;;;;;;;10.26;nan;99430.66;5068520;28;20074;-72
2021/05/17 05:17:14;;;;;;;1.75;0.65;;;;;;;10.29;nan;99432.97;5068828;28;20512;-71
2021/05/17 05:19:40;;;;;;;0.75;0.57;;;;;;;10.32;nan;99434.44;5068647;28;20043;-72
2021/05/17 05:22:05;;;;;;;2.13;0.80;;;;;;;10.33;nan;99439.53;5068244;28;20048;-73
2021/05/17 05:24:30;;;;;;;3.72;0.90;;;;;;;10.36;nan;99444.47;5068668;28;20029;-72
2021/05/17 05:34:22;;;;;;;2.27;0.80;;;;;;;10.35;nan;99445.47;5068445;28;20273;-72
2021/05/17 05:36:48;;;;;;;1.80;0.80;;;;;;;10.44;nan;99450.69;5068539;28;20570;-72
2021/05/17 05:39:13;;;;;;;1.98;0.80;;;;;;;10.49;nan;99448.34;5067620;28;20044;-72
2021/05/17 05:41:39;;;;;;;1.58;0.70;;;;;;;10.49;nan;99446.53;5050441;28;20123;-72
2021/05/17 05:44:04;;;;;;;1.50;0.65;;;;;;;10.42;nan;99453.53;5066124;28;20040;-72
2021/05/17 05:46:30;;;;;;;2.10;0.75;;;;;;;10.49;nan;99456.28;5068436;28;20563;-72
2021/05/17 05:48:57;;;;;;;2.42;0.70;;;;;;;10.54;nan;99456.56;5068601;28;20040;-72
2021/05/17 05:51:25;;;;;;;3.17;0.80;;;;;;;10.64;nan;99457.13;5050213;28;20028;-72
2021/05/17 05:53:51;;;;;;;2.45;0.80;;;;;;;10.70;nan;99464.38;5068449;28;20254;-72
2021/05/17 05:56:17;;;;;;;3.28;1.00;;;;;;;10.81;nan;99463.09;5059193;28;20040;-72
2021/05/17 05:58:44;;;;;;;2.47;0.80;;;;;;;10.84;nan;99470.66;5068135;28;20461;-71
2021/05/17 06:01:10;;;;;;;2.45;0.77;;;;;;;10.82;nan;99465.56;5070085;28;20045;-72
2021/05/17 06:03:36;;;;;;;4.38;0.77;;;;;;;10.89;nan;99467.50;5071273;28;20025;-72
2021/05/17 06:06:01;;;;;;;1.95;0.80;;;;;;;11.01;nan;99471.34;5071938;28;20029;-72
2021/05/17 06:08:27;;;;;;;2.60;0.70;;;;;;;11.02;nan;99475.63;5071698;28;20036;-72
2021/05/17 06:10:53;;;;;;;1.48;0.80;;;;;;;11.07;nan;99472.47;5072402;28;20028;-71
2021/05/17 06:13:19;;;;;;;3.33;0.95;;;;;;;11.18;nan;99483.41;5071674;28;20032;-71
2021/05/17 06:15:45;;;;;;;1.42;0.80;;;;;;;11.26;nan;99472.72;5085586;28;20243;-71
2021/05/17 06:18:13;;;;;;;2.22;0.85;;;;;;;11.36;nan;99477.75;5091887;28;20050;-72
2021/05/17 06:20:39;;;;;;;3.05;0.70;;;;;;;11.37;nan;99476.75;5084662;28;20037;-72
2021/05/17 06:23:06;;;;;;;1.65;0.80;;;;;;;11.37;nan;99484.72;5072520;28;20032;-71
2021/05/17 06:25:31;;;;;;;2.72;0.70;;;;;;;11.41;nan;99488.59;5082913;28;20028;-71
2021/05/17 06:27:57;;;;;;;2.08;0.73;;;;;;;11.48;nan;99488.69;5076363;28;20035;-72
2021/05/17 06:30:24;;;;;;;2.28;0.85;;;;;;;11.57;nan;99500.03;5065483;28;20037;-71
2021/05/17 06:32:50;;;;;;;2.80;0.80;;;;;;;11.60;nan;99492.53;5070106;28;20028;-71
2021/05/17 06:35:22;;;;;;;2.25;0.90;;;;;;;11.60;nan;99492.53;5073369;28;20029;-71
2021/05/17 06:37:48;;;;;;;1.25;0.50;;;;;;;11.57;nan;99492.09;5063386;28;20040;-72
2021/05/17 06:40:13;;;;;;;3.40;0.90;;;;;;;11.70;nan;99492.25;5067639;28;20033;-71
2021/05/17 06:42:39;;;;;;;3.40;0.70;;;;;;;11.71;nan;99498.38;5076879;28;20050;-71
2021/05/17 06:45:05;;;;;;;1.90;0.90;;;;;;;11.79;nan;99496.44;5088821;28;20057;-71
2021/05/17 06:47:33;;;;;;;1.60;0.65;;;;;;;11.84;nan;99506.47;5075229;28;20079;-71
2021/05/17 06:49:59;;;;;;;2.60;0.70;;;;;;;11.95;nan;99508.69;5080451;28;20073;-71
2021/05/17 06:52:25;;;;;;;2.47;0.70;;;;;;;11.97;nan;99505.88;5087874;28;20484;-71
2021/05/17 06:54:57;;;;;;;2.83;0.75;;;;;;;12.05;nan;99519.00;5071774;28;20115;-71
2021/05/17 06:57:35;;;;;;;3.42;0.95;;;;;;;11.88;nan;99518.38;5090921;28;20044;-71
2021/05/17 07:00:05;;;;;;;2.97;0.80;;;;;;;11.96;nan;99509.50;5088976;28;20044;-71
2021/05/17 07:02:30;;;;;;;5.55;1.35;;;;;;;11.98;nan;99515.44;5091223;28;20119;-72
2021/05/17 07:04:57;;;;;;;3.05;1.00;;;;;;;12.02;nan;99514.06;5079568;28;20171;-71
2021/05/17 07:07:42;;;;;;;1.40;0.60;;;;;;;11.99;nan;99517.91;5063953;28;20036;-71
2021/05/17 07:12:52;;;;;;;1.90;0.70;;;;;;;12.14;nan;99509.94;5070168;28;20608;-71
2021/05/17 07:15:18;;;;;;;1.23;0.60;;;;;;;12.19;nan;99518.13;5080551;28;20123;-71
2021/05/17 07:17:44;;;;;;;2.58;0.80;;;;;;;12.32;nan;99515.66;5091349;28;20089;-72
2021/05/17 07:20:15;;;;;;;1.45;0.63;;;;;;;12.36;nan;99518.72;5069552;28;20478;-72
2021/05/17 07:25:24;;;;;;;1.88;0.68;;;;;;;12.65;nan;99519.63;5068387;28;20098;-71
2021/05/17 07:27:50;;;;;;;2.58;0.85;;;;;;;13.57;nan;99522.19;5067424;28;20029;-71
2021/05/17 07:30:17;;;;;;;5.20;0.77;;;;;;;13.84;nan;99529.47;5052763;28;20039;-72
2021/05/17 07:32:42;;;;;;;3.80;1.00;;;;;;;13.70;nan;99508.13;5090634;28;20052;-72
2021/05/17 07:35:08;;;;;;;3.33;1.08;;;;;;;13.46;nan;99522.72;5087833;28;20072;-70
2021/05/17 07:37:33;;;;;;;3.05;0.98;;;;;;;13.22;nan;99517.84;5076458;28;20103;-70
2021/05/17 07:39:59;;;;;;;3.05;0.70;;;;;;;13.01;nan;99519.50;5063839;28;20037;-70
2021/05/17 07:42:24;;;;;;;1.88;0.70;;;;;;;12.67;nan;99526.38;5069355;28;20097;-71
2021/05/17 07:44:49;;;;;;;2.97;0.60;;;;;;;12.51;nan;99523.97;5071172;28;20032;-71
2021/05/17 07:47:15;;;;;;;3.10;0.80;;;;;;;12.48;nan;99527.81;5075326;28;20036;-71
2021/05/17 07:49:42;;;;;;;1.90;0.88;;;;;;;12.77;nan;99526.06;5087191;28;20028;-70
2021/05/17 07:52:09;;;;;;;2.08;1.00;;;;;;;13.10;nan;99525.50;5086389;28;20032;-72
2021/05/17 07:54:36;;;;;;;2.17;0.90;;;;;;;12.94;nan;99522.13;5084164;28;20035;-71
2021/05/17 07:57:04;;;;;;;2.10;0.75;;;;;;;12.86;nan;99530.22;5080809;28;20077;-71
2021/05/17 07:59:30;;;;;;;2.38;0.70;;;;;;;12.82;nan;99528.94;5066075;28;20036;-71
2021/05/17 08:01:56;;;;;;;2.72;0.70;;;;;;;12.86;nan;99538.19;5085665;28;20790;-71
2021/05/17 08:04:23;;;;;;;2.75;0.70;;;;;;;12.83;nan;99540.41;5081960;28;20075;-71
2021/05/17 08:06:48;;;;;;;2.20;0.60;;;;;;;12.47;nan;99530.69;5069332;28;20028;-71
2021/05/17 08:09:14;;;;;;;1.30;0.80;;;;;;;12.21;nan;99533.88;5078965;28;20037;-71
2021/05/17 08:11:39;;;;;;;2.08;0.98;;;;;;;12.05;nan;99542.84;5082343;28;20035;-71
2021/05/17 08:14:04;;;;;;;2.58;0.70;;;;;;;11.98;nan;99542.75;5067626;28;20728;-71
2021/05/17 08:16:32;;;;;;;1.73;0.70;;;;;;;12.21;nan;99549.75;5064900;28;20580;-71
2021/05/17 08:18:57;;;;;;;1.58;0.70;;;;;;;12.43;nan;99542.66;5079883;28;20036;-71
2021/05/17 08:21:23;;;;;;;1.92;0.57;;;;;;;12.64;nan;99552.47;5085993;28;20036;-71
2021/05/17 08:23:48;;;;;;;1.80;0.80;;;;;;;13.00;nan;99549.72;5084033;28;20043;-71
2021/05/17 08:26:13;;;;;;;2.47;0.70;;;;;;;13.11;nan;99551.06;5062852;28;20078;-71
2021/05/17 08:28:41;;;;;;;3.63;0.80;;;;;;;13.09;nan;99550.44;5082790;28;20036;-71
2021/05/17 08:31:08;;;;;;;2.20;0.68;;;;;;;13.06;nan;99548.97;5084811;28;20028;-71
2021/05/17 08:33:33;;;;;;;1.58;0.60;;;;;;;13.44;nan;99555.78;5088993;28;20043;-71
2021/05/17 08:35:59;;;;;;;1.23;0.50;;;;;;;13.73;nan;99558.25;5079043;28;20485;-71
2021/05/17 08:38:25;;;;;;;1.75;0.70;;;;;;;13.85;nan;99547.88;5072564;28;20464;-71
2021/05/17 08:40:50;;;;;;;1.55;0.50;;;;;;;13.78;nan;99555.00;5084056;28;20043;-71
2021/05/17 08:43:15;;;;;;;1.30;0.50;;;;;;;13.67;nan;99563.50;5083138;28;20032;-71
2021/05/17 08:45:43;;;;;;;2.70;0.65;;;;;;;13.47;nan;99563.41;5086042;28;20032;-71
2021/05/17 08:48:09;;;;;;;1.05;0.43;;;;;;;13.34;nan;99554.28;5084743;28;20044;-71
2021/05/17 08:50:34;;;;;;;1.77;0.40;;;;;;;13.38;nan;99558.22;5084406;28;20031;-71
2021/05/17 08:53:00;;;;;;;1.05;0.40;;;;;;;13.35;nan;99573.72;5080179;28;20056;-71
2021/05/17 08:55:26;;;;;;;1.17;0.40;;;;;;;13.58;nan;99568.97;5062173;28;20036;-71
2021/05/17 08:57:52;;;;;;;1.70;0.50;;;;;;;13.69;nan;99566.78;5085712;28;20378;-71
2021/05/17 09:00:20;;;;;;;1.10;0.50;;;;;;;13.82;nan;99574.81;5085549;28;20032;-72
2021/05/17 09:02:45;;;;;;;2.92;0.40;;;;;;;13.99;nan;99576.16;5086078;28;20566;-71
2021/05/17 09:05:29;;;;;;;1.48;0.57;;;;;;;14.01;nan;99574.13;5085536;28;20040;-71
2021/05/17 09:08:01;;;;;;;3.00;0.50;;;;;;;13.75;nan;99577.47;5081541;28;20440;-71
2021/05/17 09:10:34;;;;;;;1.17;0.40;;;;;;;13.57;nan;99577.13;5079664;28;20047;-71
2021/05/17 09:13:11;;;;;;;0.43;0.30;;;;;;;13.71;nan;99576.22;5082645;28;20040;-71
2021/05/17 09:15:40;;;;;;;1.52;0.40;;;;;;;14.10;nan;99584.56;5086066;28;20071;-71
2021/05/17 09:18:13;;;;;;;2.63;0.70;;;;;;;13.95;nan;99590.03;5084183;28;20096;-73
2021/05/17 09:20:40;;;;;;;1.30;0.50;;;;;;;13.88;nan;99582.03;5066686;28;20516;-71
2021/05/17 09:23:17;;;;;;;0.80;0.40;;;;;;;14.00;nan;99590.25;5051934;28;20549;-71
2021/05/17 09:25:55;;;;;;;1.08;0.57;;;;;;;13.89;nan;99586.31;5074462;28;20028;-71
2021/05/17 09:28:30;;;;;;;1.58;0.60;;;;;;;13.82;nan;99585.44;5081831;28;20127;-71
2021/05/17 09:31:03;;;;;;;2.75;0.70;;;;;;;14.02;nan;99582.91;5081827;28;20020;-70
2021/05/17 09:33:38;;;;;;;1.42;0.60;;;;;;;14.17;nan;99586.25;5074619;28;20039;-70
2021/05/17 09:36:05;;;;;;;1.10;0.50;;;;;;;14.28;nan;99584.03;5088721;28;20036;-71
2021/05/17 09:38:31;;;;;;;1.17;0.50;;;;;;;14.37;nan;99582.84;5085586;28;20447;-70
2021/05/17 09:41:01;;;;;;;1.92;0.68;;;;;;;14.09;nan;99575.78;5084454;28;20037;-71
2021/05/17 09:43:27;;;;;;;1.17;0.50;;;;;;;14.23;nan;99576.66;5089067;28;20043;-71
2021/05/17 09:45:53;;;;;;;2.85;0.70;;;;;;;14.43;nan;99568.75;5080193;28;20123;-71
2021/05/17 09:48:20;;;;;;;1.98;0.60;;;;;;;14.34;nan;99573.41;5070827;28;20130;-71
2021/05/17 09:51:14;;;;;;;1.73;0.52;;;;;;;14.42;nan;99581.22;5087611;28;20032;-71
2021/05/17 09:53:42;;;;;;;3.28;0.65;;;;;;;14.59;nan;99579.06;5087005;28;20032;-71
2021/05/17 09:56:15;;;;;;;1.88;0.60;;;;;;;14.65;nan;99572.09;5087875;28;20504;-71
2021/05/17 09:58:43;;;;;;;1.40;0.50;;;;;;;14.67;nan;99574.56;5087053;28;20439;-71
2021/05/17 10:01:11;;;;;;;1.50;0.60;;;;;;;14.78;nan;99573.97;5090181;28;20404;-70
2021/05/17 10:03:42;;;;;;;1.73;0.60;;;;;;;14.74;nan;99578.88;5083634;28;20365;-70
2021/05/17 10:06:16;;;;;;;2.70;0.60;;;;;;;14.96;nan;99574.19;5090271;28;20171;-71
2021/05/17 10:08:42;;;;;;;1.63;0.60;;;;;;;15.14;nan;99565.59;5085091;28;20039;-71
2021/05/17 10:11:07;;;;;;;1.40;0.60;;;;;;;15.53;nan;99568.44;5087001;28;20032;-70
2021/05/17 10:13:34;;;;;;;2.00;0.60;;;;;;;16.02;nan;99575.94;5085361;28;20226;-71
2021/05/17 10:16:05;;;;;;;1.40;0.40;;;;;;;16.18;nan;99566.63;5087788;28;20093;-71
2021/05/17 10:18:31;;;;;;;1.83;0.57;;;;;;;16.29;nan;99565.16;5080078;28;20059;-71
2021/05/17 10:20:57;;;;;;;1.65;0.70;;;;;;;16.19;nan;99559.47;5079402;28;20520;-71
2021/05/17 10:23:23;;;;;;;1.10;0.60;;;;;;;16.06;nan;99562.97;5069861;28;20122;-71
2021/05/17 10:25:49;;;;;;;0.60;0.30;;;;;;;16.07;nan;99554.78;5076704;28;20440;-72
2021/05/17 10:28:18;;;;;;;1.00;0.50;;;;;;;16.10;nan;99558.88;5079023;28;20495;-71
2021/05/17 10:30:43;;;;;;;1.38;0.60;;;;;;;16.05;nan;99564.03;5089303;28;20032;-71
2021/05/17 10:33:17;;;;;;;2.25;0.82;;;;;;;16.21;nan;99552.03;5085560;28;20385;-71
2021/05/17 10:35:43;;;;;;;1.55;0.60;;;;;;;16.54;nan;99550.03;5073023;28;20377;-71
2021/05/17 10:40:53;;;;;;;2.47;0.60;;;;;;;16.33;nan;99539.69;5084873;28;20294;-71
2021/05/17 10:43:49;;;;;;;1.65;0.73;;;;;;;16.24;nan;99543.63;5087579;28;20366;-71
2021/05/17 10:49:23;;;;;;;1.60;0.50;;;;;;;16.40;nan;99551.16;5085392;28;20117;-72
2021/05/17 10:51:54;;;;;;;1.52;0.60;;;;;;;16.32;nan;99538.03;5086433;28;20055;-71
2021/05/17 10:54:24;;;;;;;1.50;0.60;;;;;;;16.35;nan;99542.94;5069131;28;20405;-72
2021/05/17 11:02:15;;;;;;;1.45;0.60;;;;;;;15.17;nan;99551.88;5067641;28;20124;-71
2021/05/17 11:04:52;;;;;;;1.40;0.57;;;;;;;14.64;nan;99554.50;5047938;28;20043;-71
2021/05/17 11:07:44;;;;;;;2.45;0.68;;;;;;;14.19;nan;99544.31;5068242;28;20120;-72
2021/05/17 11:10:13;;;;;;;2.10;0.70;;;;;;;13.59;nan;99548.56;5078849;28;20032;-72
2021/05/17 11:12:43;;;;;;;1.20;0.55;;;;;;;13.05;nan;99557.13;5081555;28;20032;-72
2021/05/17 11:15:19;;;;;;;4.47;0.80;;;;;;;12.77;nan;99554.41;5076255;28;20037;-73
2021/05/17 11:18:01;;;;;;;1.58;0.60;;;;;;;12.66;nan;99543.31;5068301;28;20099;-73
2021/05/17 11:23:27;;;;;;;1.88;0.70;;;;;;;12.09;nan;99550.25;5069101;28;20036;-74
2021/05/17 11:28:42;;;;;;;6.05;1.30;;;;;;;11.75;nan;99563.19;5065622;28;20447;-73
2021/05/17 11:31:20;;;;;;;3.65;0.90;;;;;;;11.67;nan;99569.41;5066798;28;20067;-73
2021/05/17 11:33:55;;;;;;;1.63;0.68;;;;;;;11.60;nan;99558.72;5052588;28;20059;-73
2021/05/17 11:36:27;;;;;;;2.75;0.80;;;;;;;11.48;nan;99565.47;5052370;28;20039;-73
2021/05/17 11:39:07;;;;;;;2.67;0.75;;;;;;;11.52;nan;99590.59;5041962;28;20852;-74
2021/05/17 11:41:37;;;;;;;1.70;0.70;;;;;;;11.52;nan;99616.25;5083732;28;20063;-74
2021/05/17 11:44:05;;;;;;;5.47;1.55;;;;;;;11.59;nan;99601.28;5070684;28;20044;-72
2021/05/17 11:46:36;;;;;;;1.15;0.50;;;;;;;11.48;nan;99626.38;5049020;28;20504;-71
2021/05/17 11:49:02;;;;;;;3.38;0.88;;;;;;;11.53;nan;99633.78;5070320;28;20029;-70
2021/05/17 11:51:28;;;;;;;1.45;0.60;;;;;;;11.50;nan;99634.13;5064311;28;20581;-71
2021/05/17 11:53:55;;;;;;;1.70;0.60;;;;;;;11.59;nan;99630.41;5064316;28;20033;-70
2021/05/17 11:56:21;;;;;;;2.00;0.73;;;;;;;11.60;nan;99629.41;5066448;28;20064;-70
2021/05/17 11:59:15;;;;;;;1.25;0.60;;;;;;;11.76;nan;99629.25;5069711;28;20489;-70
2021/05/17 12:01:45;;;;;;;1.95;0.60;;;;;;;11.68;nan;99626.69;5065471;28;20039;-71
2021/05/17 12:04:17;;;;;;;2.10;0.60;;;;;;;11.95;nan;99622.63;5066224;28;20367;-71
2021/05/17 12:06:46;;;;;;;1.55;0.60;;;;;;;12.22;nan;99621.13;5068836;28;20064;-71
2021/05/17 12:09:11;;;;;;;3.40;0.80;;;;;;;12.48;nan;99617.16;5049549;28;20447;-71
2021/05/17 12:11:50;;;;;;;2.00;0.60;;;;;;;12.80;nan;99607.94;5068314;28;20044;-71
2021/05/17 12:14:15;;;;;;;3.28;0.73;;;;;;;12.95;nan;99605.22;5067417;28;20073;-72
2021/05/17 12:16:41;;;;;;;1.70;0.80;;;;;;;13.18;nan;99607.66;5075003;28;20032;-72
2021/05/17 12:19:06;;;;;;;2.80;0.77;;;;;;;13.30;nan;99608.81;5070568;28;20564;-71
2021/05/17 12:21:36;;;;;;;2.22;0.95;;;;;;;13.51;nan;99599.16;5068075;28;20039;-71
2021/05/17 12:24:03;;;;;;;4.40;1.17;;;;;;;13.99;nan;99596.56;5080778;28;20075;-73
2021/05/17 12:26:48;;;;;;;2.72;0.63;;;;;;;13.88;nan;99603.28;5062257;28;20044;-71
2021/05/17 12:29:13;;;;;;;1.80;0.70;;;;;;;13.84;nan;99603.88;5067885;28;20406;-71